sensor_id;sensor_type;location;lat;lon;timestamp;pressure;altitude;pressure_sealevel;temperature;humidity
10466;BME280;5280;42.600;23.556;2023-05-12T00:00:17;93661.59;;;8.63;88.22
10466;BME280;5280;42.600;23.556;2023-05-12T00:02:44;93656.44;;;8.61;88.20
10466;BME280;5280;42.600;23.556;2023-05-12T00:05:10;93666.34;;;8.71;88.86
10466;BME280;5280;42.600;23.556;2023-05-12T00:07:37;93640.38;;;8.52;88.45
10466;BME280;5280;42.600;23.556;2023-05-12T00:10:05;93657.59;;;8.70;88.86
10466;BME280;5280;42.600;23.556;2023-05-12T00:12:32;93660.41;;;8.67;88.57
10466;BME280;5280;42.600;23.556;2023-05-12T00:14:59;93634.47;;;8.36;88.61
10466;BME280;5280;42.600;23.556;2023-05-12T00:17:27;93654.63;;;8.49;88.60
10466;BME280;5280;42.600;23.556;2023-05-12T00:19:55;93672.84;;;8.52;89.33
10466;BME280;5280;42.600;23.556;2023-05-12T00:22:21;93660.09;;;8.46;90.47
10466;BME280;5280;42.600;23.556;2023-05-12T00:24:48;93659.56;;;8.41;90.17
10466;BME280;5280;42.600;23.556;2023-05-12T00:27:15;93649.78;;;8.29;90.06
10466;BME280;5280;42.600;23.556;2023-05-12T00:29:41;93645.00;;;8.36;89.58
10466;BME280;5280;42.600;23.556;2023-05-12T00:32:08;93651.31;;;8.33;90.05
10466;BME280;5280;42.600;23.556;2023-05-12T00:34:37;93661.84;;;8.33;90.75
10466;BME280;5280;42.600;23.556;2023-05-12T00:37:04;93639.13;;;8.18;90.52
10466;BME280;5280;42.600;23.556;2023-05-12T00:39:31;93640.81;;;8.19;90.53
10466;BME280;5280;42.600;23.556;2023-05-12T00:41:58;93659.41;;;8.30;90.55
10466;BME280;5280;42.600;23.556;2023-05-12T00:44:26;93656.13;;;8.27;90.10
10466;BME280;5280;42.600;23.556;2023-05-12T00:46:55;93658.31;;;8.20;90.70
10466;BME280;5280;42.600;23.556;2023-05-12T00:49:24;93654.81;;;8.19;90.60
10466;BME280;5280;42.600;23.556;2023-05-12T00:51:53;93664.28;;;8.22;90.85
10466;BME280;5280;42.600;23.556;2023-05-12T00:54:20;93627.94;;;8.02;90.98
10466;BME280;5280;42.600;23.556;2023-05-12T00:56:47;93656.13;;;8.00;90.68
10466;BME280;5280;42.600;23.556;2023-05-12T00:59:13;93634.53;;;7.95;91.23
10466;BME280;5280;42.600;23.556;2023-05-12T01:01:44;93661.41;;;8.12;90.80
10466;BME280;5280;42.600;23.556;2023-05-12T01:04:10;93661.53;;;8.11;91.54
10466;BME280;5280;42.600;23.556;2023-05-12T01:06:42;93639.16;;;7.91;90.88
10466;BME280;5280;42.600;23.556;2023-05-12T01:09:12;93642.03;;;8.01;91.41
10466;BME280;5280;42.600;23.556;2023-05-12T01:11:39;93655.31;;;8.12;91.11
10466;BME280;5280;42.600;23.556;2023-05-12T01:14:06;93646.53;;;7.99;92.01
10466;BME280;5280;42.600;23.556;2023-05-12T01:16:35;93658.38;;;8.06;91.38
10466;BME280;5280;42.600;23.556;2023-05-12T01:19:05;93645.75;;;8.11;90.41
10466;BME280;5280;42.600;23.556;2023-05-12T01:21:32;93651.50;;;8.03;90.35
10466;BME280;5280;42.600;23.556;2023-05-12T01:24:06;93644.44;;;8.04;92.37
10466;BME280;5280;42.600;23.556;2023-05-12T01:26:35;93643.56;;;7.91;91.54
10466;BME280;5280;42.600;23.556;2023-05-12T01:29:02;93633.66;;;7.82;92.40
10466;BME280;5280;42.600;23.556;2023-05-12T01:31:33;93648.28;;;7.86;91.47
10466;BME280;5280;42.600;23.556;2023-05-12T01:34:00;93649.69;;;7.91;91.40
10466;BME280;5280;42.600;23.556;2023-05-12T01:36:27;93644.91;;;7.84;91.16
10466;BME280;5280;42.600;23.556;2023-05-12T01:38:54;93648.16;;;7.87;93.13
10466;BME280;5280;42.600;23.556;2023-05-12T01:41:20;93654.94;;;7.91;95.16
10466;BME280;5280;42.600;23.556;2023-05-12T01:43:49;93652.06;;;7.82;98.50
10466;BME280;5280;42.600;23.556;2023-05-12T01:46:15;93637.59;;;7.74;100.00
10466;BME280;5280;42.600;23.556;2023-05-12T01:48:42;93590.84;;;7.39;100.00
10466;BME280;5280;42.600;23.556;2023-05-12T01:51:09;93596.38;;;7.34;100.00
10466;BME280;5280;42.600;23.556;2023-05-12T01:53:35;93640.84;;;7.65;100.00
10466;BME280;5280;42.600;23.556;2023-05-12T01:56:02;93631.75;;;7.57;100.00
10466;BME280;5280;42.600;23.556;2023-05-12T01:58:29;93643.63;;;7.62;100.00
10466;BME280;5280;42.600;23.556;2023-05-12T02:00:57;93648.00;;;7.49;100.00
10466;BME280;5280;42.600;23.556;2023-05-12T02:03:24;93636.66;;;7.34;100.00
10466;BME280;5280;42.600;23.556;2023-05-12T02:05:51;93651.22;;;7.40;100.00
10466;BME280;5280;42.600;23.556;2023-05-12T02:08:17;93658.16;;;7.41;100.00
10466;BME280;5280;42.600;23.556;2023-05-12T02:10:44;93644.47;;;7.22;100.00
10466;BME280;5280;42.600;23.556;2023-05-12T02:13:11;93661.09;;;7.37;100.00
10466;BME280;5280;42.600;23.556;2023-05-12T02:15:38;93653.09;;;7.38;100.00
10466;BME280;5280;42.600;23.556;2023-05-12T02:18:06;93649.16;;;7.31;100.00
10466;BME280;5280;42.600;23.556;2023-05-12T02:20:33;93658.91;;;7.43;100.00
10466;BME280;5280;42.600;23.556;2023-05-12T02:23:00;93669.88;;;7.50;100.00
10466;BME280;5280;42.600;23.556;2023-05-12T02:25:27;93636.56;;;7.36;100.00
10466;BME280;5280;42.600;23.556;2023-05-12T02:27:54;93650.00;;;7.46;100.00
10466;BME280;5280;42.600;23.556;2023-05-12T02:30:21;93673.72;;;7.58;100.00
10466;BME280;5280;42.600;23.556;2023-05-12T02:32:48;93676.34;;;7.58;100.00
10466;BME280;5280;42.600;23.556;2023-05-12T02:35:16;93623.81;;;7.30;100.00
10466;BME280;5280;42.600;23.556;2023-05-12T02:37:43;93652.13;;;7.53;100.00
10466;BME280;5280;42.600;23.556;2023-05-12T02:40:10;93676.25;;;7.60;100.00
10466;BME280;5280;42.600;23.556;2023-05-12T02:42:37;93668.41;;;7.72;100.00
10466;BME280;5280;42.600;23.556;2023-05-12T02:45:05;93564.22;;;7.16;100.00
10466;BME280;5280;42.600;23.556;2023-05-12T02:47:32;93647.88;;;7.65;100.00
10466;BME280;5280;42.600;23.556;2023-05-12T02:50:01;93664.97;;;7.72;100.00
10466;BME280;5280;42.600;23.556;2023-05-12T02:52:29;93657.72;;;7.75;100.00
10466;BME280;5280;42.600;23.556;2023-05-12T02:54:56;93646.63;;;7.70;100.00
10466;BME280;5280;42.600;23.556;2023-05-12T02:57:23;93666.44;;;7.76;100.00
10466;BME280;5280;42.600;23.556;2023-05-12T02:59:51;93644.09;;;7.69;100.00
10466;BME280;5280;42.600;23.556;2023-05-12T03:02:18;93655.94;;;7.76;100.00
10466;BME280;5280;42.600;23.556;2023-05-12T03:04:45;93667.31;;;7.76;100.00
10466;BME280;5280;42.600;23.556;2023-05-12T03:07:12;93638.38;;;7.62;100.00
10466;BME280;5280;42.600;23.556;2023-05-12T03:09:40;93670.88;;;7.75;100.00
10466;BME280;5280;42.600;23.556;2023-05-12T03:12:07;93664.75;;;7.75;100.00
10466;BME280;5280;42.600;23.556;2023-05-12T03:14:34;93656.94;;;7.73;100.00
10466;BME280;5280;42.600;23.556;2023-05-12T03:17:01;93653.22;;;7.63;100.00
10466;BME280;5280;42.600;23.556;2023-05-12T03:19:28;93589.28;;;7.22;100.00
10466;BME280;5280;42.600;23.556;2023-05-12T03:21:55;93656.53;;;7.67;100.00
10466;BME280;5280;42.600;23.556;2023-05-12T03:24:21;93668.16;;;7.63;100.00
10466;BME280;5280;42.600;23.556;2023-05-12T03:26:50;93668.91;;;7.65;100.00
10466;BME280;5280;42.600;23.556;2023-05-12T03:29:16;93666.00;;;7.69;100.00
10466;BME280;5280;42.600;23.556;2023-05-12T03:31:43;93634.09;;;7.47;100.00
10466;BME280;5280;42.600;23.556;2023-05-12T03:34:10;93683.81;;;7.78;100.00
10466;BME280;5280;42.600;23.556;2023-05-12T03:36:37;93674.53;;;7.73;100.00
10466;BME280;5280;42.600;23.556;2023-05-12T03:39:05;93672.31;;;7.67;100.00
10466;BME280;5280;42.600;23.556;2023-05-12T03:41:33;93680.47;;;7.62;100.00
10466;BME280;5280;42.600;23.556;2023-05-12T03:44:01;93689.88;;;7.66;100.00
10466;BME280;5280;42.600;23.556;2023-05-12T03:46:29;93666.41;;;7.49;100.00
10466;BME280;5280;42.600;23.556;2023-05-12T03:48:57;93659.06;;;7.54;100.00
10466;BME280;5280;42.600;23.556;2023-05-12T03:51:24;93681.50;;;7.60;100.00
10466;BME280;5280;42.600;23.556;2023-05-12T03:53:52;93689.69;;;7.55;100.00
10466;BME280;5280;42.600;23.556;2023-05-12T03:56:19;93692.88;;;7.60;100.00
10466;BME280;5280;42.600;23.556;2023-05-12T03:58:45;93697.84;;;7.65;100.00
10466;BME280;5280;42.600;23.556;2023-05-12T04:01:14;93684.16;;;7.46;100.00
10466;BME280;5280;42.600;23.556;2023-05-12T04:03:44;93695.59;;;7.59;100.00
10466;BME280;5280;42.600;23.556;2023-05-12T04:06:10;93690.91;;;7.50;100.00
10466;BME280;5280;42.600;23.556;2023-05-12T04:08:37;93678.06;;;7.45;100.00
10466;BME280;5280;42.600;23.556;2023-05-12T04:11:04;93654.78;;;7.25;100.00
10466;BME280;5280;42.600;23.556;2023-05-12T04:13:31;93593.63;;;6.95;100.00
10466;BME280;5280;42.600;23.556;2023-05-12T04:15:58;93697.22;;;7.61;100.00
10466;BME280;5280;42.600;23.556;2023-05-12T04:18:27;93701.50;;;7.62;100.00
10466;BME280;5280;42.600;23.556;2023-05-12T04:20:54;93654.72;;;7.26;100.00
10466;BME280;5280;42.600;23.556;2023-05-12T04:23:21;93684.59;;;7.52;100.00
10466;BME280;5280;42.600;23.556;2023-05-12T04:25:48;93698.88;;;7.62;100.00
10466;BME280;5280;42.600;23.556;2023-05-12T04:28:15;93704.50;;;7.70;100.00
10466;BME280;5280;42.600;23.556;2023-05-12T04:30:45;93701.25;;;7.67;100.00
10466;BME280;5280;42.600;23.556;2023-05-12T04:33:11;93690.97;;;7.62;100.00
10466;BME280;5280;42.600;23.556;2023-05-12T04:35:40;93655.81;;;7.22;100.00
10466;BME280;5280;42.600;23.556;2023-05-12T04:38:06;93701.31;;;7.65;100.00
10466;BME280;5280;42.600;23.556;2023-05-12T04:40:33;93699.38;;;7.55;100.00
10466;BME280;5280;42.600;23.556;2023-05-12T04:43:00;93699.38;;;7.55;100.00
10466;BME280;5280;42.600;23.556;2023-05-12T04:45:27;93605.59;;;7.13;100.00
10466;BME280;5280;42.600;23.556;2023-05-12T04:47:53;93648.38;;;7.43;100.00
10466;BME280;5280;42.600;23.556;2023-05-12T04:50:20;93692.28;;;7.69;100.00
10466;BME280;5280;42.600;23.556;2023-05-12T04:52:48;93681.34;;;7.49;100.00
10466;BME280;5280;42.600;23.556;2023-05-12T04:55:15;93692.69;;;7.63;100.00
10466;BME280;5280;42.600;23.556;2023-05-12T04:57:42;93695.13;;;7.66;100.00
10466;BME280;5280;42.600;23.556;2023-05-12T05:00:10;93703.66;;;7.70;100.00
10466;BME280;5280;42.600;23.556;2023-05-12T05:02:36;93709.78;;;7.70;100.00
10466;BME280;5280;42.600;23.556;2023-05-12T05:05:04;93714.81;;;7.73;100.00
10466;BME280;5280;42.600;23.556;2023-05-12T05:07:31;93714.81;;;7.73;100.00
10466;BME280;5280;42.600;23.556;2023-05-12T05:09:59;93715.94;;;7.84;100.00
10466;BME280;5280;42.600;23.556;2023-05-12T05:12:26;93715.09;;;7.83;100.00
10466;BME280;5280;42.600;23.556;2023-05-12T05:14:52;93713.97;;;7.73;100.00
10466;BME280;5280;42.600;23.556;2023-05-12T05:17:19;93684.22;;;7.58;100.00
10466;BME280;5280;42.600;23.556;2023-05-12T05:19:46;93712.19;;;7.73;100.00
10466;BME280;5280;42.600;23.556;2023-05-12T05:22:13;93709.13;;;7.67;100.00
10466;BME280;5280;42.600;23.556;2023-05-12T05:24:41;93712.56;;;7.67;100.00
10466;BME280;5280;42.600;23.556;2023-05-12T05:27:09;93690.28;;;7.46;100.00
10466;BME280;5280;42.600;23.556;2023-05-12T05:29:36;93719.91;;;7.76;100.00
10466;BME280;5280;42.600;23.556;2023-05-12T05:32:04;93668.56;;;7.43;100.00
10466;BME280;5280;42.600;23.556;2023-05-12T05:34:31;93701.63;;;7.88;100.00
10466;BME280;5280;42.600;23.556;2023-05-12T05:36:58;93712.56;;;7.82;100.00
10466;BME280;5280;42.600;23.556;2023-05-12T05:39:24;93724.38;;;7.89;100.00
10466;BME280;5280;42.600;23.556;2023-05-12T05:41:54;93718.47;;;7.85;100.00
10466;BME280;5280;42.600;23.556;2023-05-12T05:44:23;93721.03;;;7.87;100.00
10466;BME280;5280;42.600;23.556;2023-05-12T05:46:50;93716.50;;;7.89;100.00
10466;BME280;5280;42.600;23.556;2023-05-12T05:49:17;93728.88;;;8.01;100.00
10466;BME280;5280;42.600;23.556;2023-05-12T05:51:43;93724.34;;;8.03;100.00
10466;BME280;5280;42.600;23.556;2023-05-12T05:54:10;93671.25;;;7.69;100.00
10466;BME280;5280;42.600;23.556;2023-05-12T05:56:37;93651.38;;;7.51;100.00
10466;BME280;5280;42.600;23.556;2023-05-12T05:59:04;93738.06;;;8.08;100.00
10466;BME280;5280;42.600;23.556;2023-05-12T06:01:32;93730.38;;;8.05;100.00
10466;BME280;5280;42.600;23.556;2023-05-12T06:03:59;93736.09;;;8.11;100.00
10466;BME280;5280;42.600;23.556;2023-05-12T06:06:25;93735.25;;;8.11;100.00
10466;BME280;5280;42.600;23.556;2023-05-12T06:08:52;93744.47;;;8.04;100.00
10466;BME280;5280;42.600;23.556;2023-05-12T06:11:20;93733.16;;;8.16;100.00
10466;BME280;5280;42.600;23.556;2023-05-12T06:13:46;93717.75;;;8.10;100.00
10466;BME280;5280;42.600;23.556;2023-05-12T06:16:13;93734.28;;;8.12;100.00
10466;BME280;5280;42.600;23.556;2023-05-12T06:18:41;93725.75;;;8.08;100.00
10466;BME280;5280;42.600;23.556;2023-05-12T06:21:08;93733.47;;;8.11;100.00
10466;BME280;5280;42.600;23.556;2023-05-12T06:23:35;93726.97;;;8.03;100.00
10466;BME280;5280;42.600;23.556;2023-05-12T06:26:01;93743.69;;;8.16;100.00
10466;BME280;5280;42.600;23.556;2023-05-12T06:28:28;93725.28;;;8.16;100.00
10466;BME280;5280;42.600;23.556;2023-05-12T06:30:55;93742.75;;;8.31;100.00
10466;BME280;5280;42.600;23.556;2023-05-12T06:33:24;93732.75;;;8.22;100.00
10466;BME280;5280;42.600;23.556;2023-05-12T06:38:54;93736.97;;;8.25;100.00
10466;BME280;5280;42.600;23.556;2023-05-12T06:41:21;93696.50;;;7.86;100.00
10466;BME280;5280;42.600;23.556;2023-05-12T06:43:49;93740.75;;;8.20;100.00
10466;BME280;5280;42.600;23.556;2023-05-12T06:46:16;93752.22;;;8.34;100.00
10466;BME280;5280;42.600;23.556;2023-05-12T06:48:43;93746.31;;;8.30;100.00
10466;BME280;5280;42.600;23.556;2023-05-12T06:51:15;93735.50;;;8.20;100.00
10466;BME280;5280;42.600;23.556;2023-05-12T06:53:42;93690.94;;;7.91;100.00
10466;BME280;5280;42.600;23.556;2023-05-12T06:56:11;93713.97;;;8.14;100.00
10466;BME280;5280;42.600;23.556;2023-05-12T06:58:43;93710.03;;;8.21;100.00
10466;BME280;5280;42.600;23.556;2023-05-12T07:01:13;93676.25;;;8.01;100.00
10466;BME280;5280;42.600;23.556;2023-05-12T07:03:40;93756.41;;;8.50;100.00
10466;BME280;5280;42.600;23.556;2023-05-12T07:06:07;93750.38;;;8.48;100.00
10466;BME280;5280;42.600;23.556;2023-05-12T07:08:34;93763.38;;;8.51;100.00
10466;BME280;5280;42.600;23.556;2023-05-12T07:11:01;93753.16;;;8.59;100.00
10466;BME280;5280;42.600;23.556;2023-05-12T07:13:29;93749.97;;;8.54;100.00
10466;BME280;5280;42.600;23.556;2023-05-12T07:15:56;93729.69;;;8.42;100.00
10466;BME280;5280;42.600;23.556;2023-05-12T07:18:24;93739.97;;;8.59;100.00
10466;BME280;5280;42.600;23.556;2023-05-12T07:20:51;93761.31;;;8.82;100.00
10466;BME280;5280;42.600;23.556;2023-05-12T07:23:18;93759.66;;;8.81;100.00
10466;BME280;5280;42.600;23.556;2023-05-12T07:25:45;93754.38;;;8.81;100.00
10466;BME280;5280;42.600;23.556;2023-05-12T07:28:12;93763.22;;;8.80;100.00
10466;BME280;5280;42.600;23.556;2023-05-12T07:30:41;93767.25;;;8.85;100.00
10466;BME280;5280;42.600;23.556;2023-05-12T07:33:08;93732.53;;;8.79;100.00
10466;BME280;5280;42.600;23.556;2023-05-12T07:35:34;93764.22;;;8.91;100.00
10466;BME280;5280;42.600;23.556;2023-05-12T07:38:01;93674.28;;;8.31;100.00
10466;BME280;5280;42.600;23.556;2023-05-12T07:40:28;93699.59;;;8.46;100.00
10466;BME280;5280;42.600;23.556;2023-05-12T07:42:55;93747.13;;;8.97;100.00
10466;BME280;5280;42.600;23.556;2023-05-12T07:45:22;93757.47;;;9.00;100.00
10466;BME280;5280;42.600;23.556;2023-05-12T07:47:51;93757.78;;;9.08;100.00
10466;BME280;5280;42.600;23.556;2023-05-12T07:50:18;93734.47;;;9.02;100.00
10466;BME280;5280;42.600;23.556;2023-05-12T07:52:46;93754.00;;;9.12;100.00
10466;BME280;5280;42.600;23.556;2023-05-12T08:00:17;93760.34;;;9.35;100.00
10466;BME280;5280;42.600;23.556;2023-05-12T08:02:44;93750.84;;;9.32;100.00
10466;BME280;5280;42.600;23.556;2023-05-12T08:05:16;93755.59;;;9.40;100.00
10466;BME280;5280;42.600;23.556;2023-05-12T08:07:43;93760.03;;;9.52;100.00
10466;BME280;5280;42.600;23.556;2023-05-12T08:10:11;93755.19;;;9.59;100.00
10466;BME280;5280;42.600;23.556;2023-05-12T08:12:38;93698.63;;;9.12;100.00
10466;BME280;5280;42.600;23.556;2023-05-12T08:15:06;93743.59;;;9.36;100.00
10466;BME280;5280;42.600;23.556;2023-05-12T08:25:13;93766.66;;;9.83;97.95
10466;BME280;5280;42.600;23.556;2023-05-12T08:27:40;93766.53;;;9.97;96.88
10466;BME280;5280;42.600;23.556;2023-05-12T08:30:08;93763.78;;;9.99;97.03
10466;BME280;5280;42.600;23.556;2023-05-12T08:32:35;93766.84;;;10.05;92.91
10466;BME280;5280;42.600;23.556;2023-05-12T08:35:03;93759.97;;;10.03;93.75
10466;BME280;5280;42.600;23.556;2023-05-12T08:37:30;93747.94;;;9.99;90.59
10466;BME280;5280;42.600;23.556;2023-05-12T08:39:57;93764.25;;;10.29;90.41
10466;BME280;5280;42.600;23.556;2023-05-12T08:42:33;93778.09;;;10.32;90.69
10466;BME280;5280;42.600;23.556;2023-05-12T08:45:01;93735.03;;;10.19;90.31
10466;BME280;5280;42.600;23.556;2023-05-12T08:47:30;93752.66;;;10.55;93.10
10466;BME280;5280;42.600;23.556;2023-05-12T08:50:00;93748.88;;;10.70;86.76
10466;BME280;5280;42.600;23.556;2023-05-12T08:52:28;93752.97;;;10.74;84.65
10466;BME280;5280;42.600;23.556;2023-05-12T08:54:56;93766.56;;;10.81;84.25
10466;BME280;5280;42.600;23.556;2023-05-12T09:00:01;93715.94;;;10.98;84.13
10466;BME280;5280;42.600;23.556;2023-05-12T09:02:33;93761.00;;;11.43;86.75
10466;BME280;5280;42.600;23.556;2023-05-12T09:05:03;93758.41;;;11.65;85.32
10466;BME280;5280;42.600;23.556;2023-05-12T09:07:30;93688.84;;;11.30;80.40
10466;BME280;5280;42.600;23.556;2023-05-12T09:09:59;93746.06;;;11.88;81.52
10466;BME280;5280;42.600;23.556;2023-05-12T09:12:31;93741.34;;;12.02;79.32
10466;BME280;5280;42.600;23.556;2023-05-12T09:15:03;93736.91;;;12.14;79.53
10466;BME280;5280;42.600;23.556;2023-05-12T09:17:32;93748.88;;;12.40;81.21
10466;BME280;5280;42.600;23.556;2023-05-12T09:19:59;93742.97;;;12.59;76.63
10466;BME280;5280;42.600;23.556;2023-05-12T09:22:29;93732.66;;;12.77;76.00
10466;BME280;5280;42.600;23.556;2023-05-12T09:24:58;93738.31;;;12.83;70.77
10466;BME280;5280;42.600;23.556;2023-05-12T09:27:25;93720.88;;;12.90;72.84
10466;BME280;5280;42.600;23.556;2023-05-12T09:29:53;93731.19;;;13.16;70.30
10466;BME280;5280;42.600;23.556;2023-05-12T09:32:30;93741.34;;;13.31;73.67
10466;BME280;5280;42.600;23.556;2023-05-12T09:35:01;93736.38;;;13.38;69.57
10466;BME280;5280;42.600;23.556;2023-05-12T09:37:30;93734.56;;;13.59;69.96
10466;BME280;5280;42.600;23.556;2023-05-12T09:40:00;93731.75;;;13.61;65.47
10466;BME280;5280;42.600;23.556;2023-05-12T09:42:28;93747.75;;;13.70;64.73
10466;BME280;5280;42.600;23.556;2023-05-12T09:44:58;93746.41;;;13.55;65.60
10466;BME280;5280;42.600;23.556;2023-05-12T09:47:26;93713.47;;;13.37;69.04
10466;BME280;5280;42.600;23.556;2023-05-12T09:49:55;93707.97;;;13.29;65.74
10466;BME280;5280;42.600;23.556;2023-05-12T09:52:23;93738.44;;;13.55;62.40
10466;BME280;5280;42.600;23.556;2023-05-12T09:54:50;93742.19;;;13.73;66.37
10466;BME280;5280;42.600;23.556;2023-05-12T09:57:20;93693.28;;;13.55;64.76
10466;BME280;5280;42.600;23.556;2023-05-12T09:59:50;93734.44;;;13.91;63.61
10466;BME280;5280;42.600;23.556;2023-05-12T10:02:18;93720.91;;;13.94;61.48
10466;BME280;5280;42.600;23.556;2023-05-12T10:04:48;93740.22;;;13.75;57.85
10466;BME280;5280;42.600;23.556;2023-05-12T10:07:20;93752.44;;;13.78;60.97
10466;BME280;5280;42.600;23.556;2023-05-12T10:09:48;93712.03;;;13.54;59.25
10466;BME280;5280;42.600;23.556;2023-05-12T10:12:15;93739.50;;;13.64;60.06
10466;BME280;5280;42.600;23.556;2023-05-12T10:14:43;93739.34;;;13.65;60.17
10466;BME280;5280;42.600;23.556;2023-05-12T10:17:11;93741.31;;;13.63;60.40
10466;BME280;5280;42.600;23.556;2023-05-12T10:19:38;93715.78;;;13.51;62.91
10466;BME280;5280;42.600;23.556;2023-05-12T10:22:09;93739.78;;;13.70;62.59
10466;BME280;5280;42.600;23.556;2023-05-12T10:24:38;93737.84;;;13.72;59.09
10466;BME280;5280;42.600;23.556;2023-05-12T10:27:06;93746.81;;;14.02;58.98
10466;BME280;5280;42.600;23.556;2023-05-12T10:29:34;93735.28;;;13.92;57.60
10466;BME280;5280;42.600;23.556;2023-05-12T10:32:01;93739.91;;;13.90;57.72
10466;BME280;5280;42.600;23.556;2023-05-12T10:34:32;93731.66;;;13.93;54.54
10466;BME280;5280;42.600;23.556;2023-05-12T10:37:00;93736.66;;;14.16;55.45
10466;BME280;5280;42.600;23.556;2023-05-12T10:39:32;93729.44;;;13.98;49.29
10466;BME280;5280;42.600;23.556;2023-05-12T10:42:04;93724.25;;;13.96;52.89
10466;BME280;5280;42.600;23.556;2023-05-12T10:44:33;93729.63;;;14.06;52.82
10466;BME280;5280;42.600;23.556;2023-05-12T10:47:00;93717.50;;;14.13;57.54
10466;BME280;5280;42.600;23.556;2023-05-12T10:49:34;93720.59;;;14.18;55.47
10466;BME280;5280;42.600;23.556;2023-05-12T10:52:05;93697.81;;;13.95;53.06
10466;BME280;5280;42.600;23.556;2023-05-12T10:54:38;93725.19;;;14.16;55.32
10466;BME280;5280;42.600;23.556;2023-05-12T10:57:11;93709.41;;;14.24;55.91
10466;BME280;5280;42.600;23.556;2023-05-12T10:59:47;93710.59;;;14.41;54.41
10466;BME280;5280;42.600;23.556;2023-05-12T11:02:15;93710.28;;;14.34;52.83
10466;BME280;5280;42.600;23.556;2023-05-12T11:04:46;93710.06;;;14.47;51.48
10466;BME280;5280;42.600;23.556;2023-05-12T11:07:16;93713.84;;;14.44;50.13
10466;BME280;5280;42.600;23.556;2023-05-12T11:09:46;93717.75;;;14.50;53.06
10466;BME280;5280;42.600;23.556;2023-05-12T11:12:15;93660.94;;;14.11;50.33
10466;BME280;5280;42.600;23.556;2023-05-12T11:14:43;93713.56;;;14.47;52.96
10466;BME280;5280;42.600;23.556;2023-05-12T11:17:10;93729.84;;;14.63;51.59
10466;BME280;5280;42.600;23.556;2023-05-12T11:19:38;93731.38;;;14.66;51.43
10466;BME280;5280;42.600;23.556;2023-05-12T11:22:07;93728.16;;;14.72;54.09
10466;BME280;5280;42.600;23.556;2023-05-12T11:24:36;93720.75;;;14.76;52.55
10466;BME280;5280;42.600;23.556;2023-05-12T11:27:05;93738.25;;;14.69;53.09
10466;BME280;5280;42.600;23.556;2023-05-12T11:29:34;93689.97;;;14.33;53.35
10466;BME280;5280;42.600;23.556;2023-05-12T11:32:02;93672.19;;;14.14;52.65
10466;BME280;5280;42.600;23.556;2023-05-12T11:34:29;93740.59;;;14.52;52.29
10466;BME280;5280;42.600;23.556;2023-05-12T11:36:56;93727.34;;;14.32;51.56
10466;BME280;5280;42.600;23.556;2023-05-12T11:39:25;93734.13;;;14.45;52.64
10466;BME280;5280;42.600;23.556;2023-05-12T11:41:59;93720.06;;;14.34;53.06
10466;BME280;5280;42.600;23.556;2023-05-12T11:44:26;93737.19;;;14.41;52.44
10466;BME280;5280;42.600;23.556;2023-05-12T11:46:59;93742.81;;;14.47;51.31
10466;BME280;5280;42.600;23.556;2023-05-12T11:49:26;93740.69;;;14.41;53.14
10466;BME280;5280;42.600;23.556;2023-05-12T11:51:55;93706.56;;;14.16;53.66
10466;BME280;5280;42.600;23.556;2023-05-12T11:54:22;93684.97;;;14.00;54.82
10466;BME280;5280;42.600;23.556;2023-05-12T11:56:51;93730.09;;;14.20;52.77
10466;BME280;5280;42.600;23.556;2023-05-12T11:59:28;93728.19;;;14.32;55.26
10466;BME280;5280;42.600;23.556;2023-05-12T12:01:57;93683.19;;;14.10;51.50
10466;BME280;5280;42.600;23.556;2023-05-12T12:04:34;93731.69;;;14.33;52.00
10466;BME280;5280;42.600;23.556;2023-05-12T12:07:01;93736.03;;;14.34;52.16
10466;BME280;5280;42.600;23.556;2023-05-12T12:09:32;93726.06;;;14.26;52.19
10466;BME280;5280;42.600;23.556;2023-05-12T12:12:00;93715.69;;;14.23;51.85
10466;BME280;5280;42.600;23.556;2023-05-12T12:14:29;93745.16;;;14.10;52.16
10466;BME280;5280;42.600;23.556;2023-05-12T12:16:58;93740.44;;;14.14;54.50
10466;BME280;5280;42.600;23.556;2023-05-12T12:19:25;93735.81;;;14.16;55.36
10466;BME280;5280;42.600;23.556;2023-05-12T12:21:53;93725.91;;;14.18;54.53
10466;BME280;5280;42.600;23.556;2023-05-12T12:24:20;93741.59;;;14.31;55.75
10466;BME280;5280;42.600;23.556;2023-05-12T12:26:46;93730.38;;;14.17;54.52
10466;BME280;5280;42.600;23.556;2023-05-12T12:29:13;93685.16;;;13.77;54.72
10466;BME280;5280;42.600;23.556;2023-05-12T12:31:40;93738.19;;;14.09;55.86
10466;BME280;5280;42.600;23.556;2023-05-12T12:34:09;93727.22;;;14.03;57.45
10466;BME280;5280;42.600;23.556;2023-05-12T12:36:36;93739.56;;;14.04;55.21
10466;BME280;5280;42.600;23.556;2023-05-12T12:39:03;93741.50;;;14.02;56.19
10466;BME280;5280;42.600;23.556;2023-05-12T12:41:30;93733.56;;;14.11;56.21
10466;BME280;5280;42.600;23.556;2023-05-12T12:43:57;93736.00;;;14.24;58.89
10466;BME280;5280;42.600;23.556;2023-05-12T12:46:24;93739.34;;;14.26;56.95
10466;BME280;5280;42.600;23.556;2023-05-12T12:48:51;93742.56;;;14.30;57.81
10466;BME280;5280;42.600;23.556;2023-05-12T12:51:19;93720.31;;;14.31;57.06
10466;BME280;5280;42.600;23.556;2023-05-12T12:53:46;93743.69;;;14.27;56.91
10466;BME280;5280;42.600;23.556;2023-05-12T12:56:13;93658.72;;;13.76;59.01
10466;BME280;5280;42.600;23.556;2023-05-12T12:58:40;93730.41;;;14.27;56.61
10466;BME280;5280;42.600;23.556;2023-05-12T13:01:07;93736.84;;;14.25;57.91
10466;BME280;5280;42.600;23.556;2023-05-12T13:03:34;93676.84;;;13.92;56.46
10466;BME280;5280;42.600;23.556;2023-05-12T13:06:01;93729.03;;;14.33;57.33
10466;BME280;5280;42.600;23.556;2023-05-12T13:08:29;93674.06;;;13.93;56.08
10466;BME280;5280;42.600;23.556;2023-05-12T13:10:56;93732.06;;;14.18;57.66
10466;BME280;5280;42.600;23.556;2023-05-12T13:13:23;93730.06;;;14.11;58.74
10466;BME280;5280;42.600;23.556;2023-05-12T13:15:51;93730.06;;;14.11;59.10
10466;BME280;5280;42.600;23.556;2023-05-12T13:18:18;93657.56;;;13.59;59.23
10466;BME280;5280;42.600;23.556;2023-05-12T13:20:46;93718.41;;;14.02;58.02
10466;BME280;5280;42.600;23.556;2023-05-12T13:23:12;93708.44;;;13.95;58.04